Time;durP1;ratioP1;P1;durP2;ratioP2;P2;SDS_P1;SDS_P2;PMS_P1;PMS_P2;Temp;Humidity;BMP_temperature;BMP_pressure;BME280_temperature;BME280_humidity;BME280_pressure;Samples;Min_cycle;Max_cycle;Signal;HPM_P1;HPM_P2
2021/08/02 00:01:43;;;;;;;2.42;1.00;;;16.00;94.20;;;;;;5059270;28;20029;-77
2021/08/02 00:04:10;;;;;;;3.00;0.90;;;16.00;94.40;;;;;;5057173;28;20108;-77
2021/08/02 00:07:01;;;;;;;2.10;1.13;;;16.00;94.40;;;;;;5059097;28;20195;-77
2021/08/02 00:09:35;;;;;;;1.58;1.15;;;16.00;94.80;;;;;;5058535;28;20048;-77
2021/08/02 00:12:07;;;;;;;2.00;1.10;;;16.00;94.80;;;;;;5059402;28;20021;-77
2021/08/02 00:14:33;;;;;;;2.67;1.35;;;15.90;95.00;;;;;;5061432;28;20021;-77
2021/08/02 00:17:00;;;;;;;2.80;1.17;;;15.90;95.10;;;;;;5061404;28;20085;-77
2021/08/02 00:19:26;;;;;;;1.83;1.30;;;15.90;95.20;;;;;;5062212;28;20055;-77
2021/08/02 00:21:52;;;;;;;1.83;0.85;;;15.90;95.30;;;;;;5062419;28;20064;-77
2021/08/02 00:24:19;;;;;;;2.42;1.48;;;15.90;95.50;;;;;;5060975;28;20247;-77
2021/08/02 00:26:45;;;;;;;2.53;1.38;;;15.90;95.50;;;;;;5062682;28;20024;-77
2021/08/02 00:29:12;;;;;;;6.05;1.60;;;15.90;95.50;;;;;;5065832;28;20029;-77
2021/08/02 00:31:38;;;;;;;1.50;1.17;;;15.80;95.50;;;;;;5068376;28;20025;-77
2021/08/02 00:34:04;;;;;;;2.55;2.17;;;15.80;95.60;;;;;;5060289;28;20039;-77
2021/08/02 00:36:42;;;;;;;6.50;2.90;;;15.80;95.70;;;;;;5062172;28;20032;-77
2021/08/02 00:39:25;;;;;;;3.17;2.42;;;15.80;95.90;;;;;;5061179;28;20021;-77
2021/08/02 00:42:21;;;;;;;2.88;1.90;;;15.80;95.80;;;;;;5061582;28;20035;-77
2021/08/02 00:45:04;;;;;;;3.65;1.60;;;15.80;95.90;;;;;;5060597;28;20111;-77
2021/08/02 00:47:55;;;;;;;5.82;2.38;;;15.80;95.90;;;;;;5060818;28;20024;-77
2021/08/02 00:50:24;;;;;;;5.70;2.25;;;15.80;96.10;;;;;;5061329;28;20047;-77
2021/08/02 00:52:54;;;;;;;3.20;1.80;;;15.80;95.90;;;;;;5067675;28;20020;-77
2021/08/02 00:55:20;;;;;;;1.98;1.60;;;15.80;96.00;;;;;;5060663;28;20475;-77
2021/08/02 00:57:48;;;;;;;2.75;1.83;;;15.80;96.20;;;;;;5061532;28;20043;-77
2021/08/02 01:00:16;;;;;;;3.42;2.03;;;15.70;96.10;;;;;;5060790;28;20086;-77
2021/08/02 01:02:47;;;;;;;2.17;1.98;;;15.70;96.10;;;;;;5061424;28;20028;-77
2021/08/02 01:05:14;;;;;;;6.50;1.88;;;15.70;96.40;;;;;;5060388;28;20033;-77
2021/08/02 01:07:46;;;;;;;2.95;1.90;;;15.70;96.10;;;;;;5061189;28;20471;-77
2021/08/02 01:10:13;;;;;;;3.50;1.67;;;15.70;96.10;;;;;;5060312;28;20387;-77
2021/08/02 01:12:42;;;;;;;1.67;1.58;;;15.70;96.00;;;;;;5061008;28;20021;-77
2021/08/02 01:15:09;;;;;;;3.03;1.38;;;15.80;96.10;;;;;;5060262;28;20055;-77
2021/08/02 01:17:35;;;;;;;2.42;2.00;;;15.80;95.90;;;;;;5061577;28;20068;-77
2021/08/02 01:20:03;;;;;;;1.92;1.58;;;15.70;95.80;;;;;;5060640;28;20514;-77
2021/08/02 01:22:31;;;;;;;4.50;1.88;;;15.80;95.70;;;;;;5060191;28;20044;-77
2021/08/02 01:24:57;;;;;;;1.65;1.15;;;15.80;95.60;;;;;;5060249;28;20025;-77
2021/08/02 01:27:45;;;;;;;3.60;1.30;;;15.70;95.40;;;;;;5060530;28;20017;-77
2021/08/02 01:30:23;;;;;;;3.08;1.77;;;15.70;95.30;;;;;;5061183;28;20024;-77
2021/08/02 01:32:49;;;;;;;6.57;1.33;;;15.70;95.20;;;;;;5076038;28;20043;-77
2021/08/02 01:35:16;;;;;;;2.08;1.55;;;15.60;95.20;;;;;;5058731;28;20483;-77
2021/08/02 01:37:43;;;;;;;1.55;1.35;;;15.60;95.20;;;;;;5061021;28;20033;-77
2021/08/02 01:40:09;;;;;;;5.10;1.98;;;15.60;95.20;;;;;;5061290;28;20035;-77
2021/08/02 01:42:36;;;;;;;4.82;1.33;;;15.60;95.20;;;;;;5058582;28;20020;-77
2021/08/02 01:45:02;;;;;;;2.70;0.95;;;15.50;95.10;;;;;;5075596;28;20060;-77
2021/08/02 01:47:49;;;;;;;2.63;1.42;;;15.50;95.10;;;;;;5059328;28;20499;-77
2021/08/02 01:50:35;;;;;;;1.75;1.63;;;15.40;95.10;;;;;;5059161;28;20025;-77
2021/08/02 01:53:30;;;;;;;3.03;1.17;;;15.40;95.00;;;;;;5075915;28;20025;-77
2021/08/02 01:56:06;;;;;;;4.78;1.02;;;15.30;95.00;;;;;;5056566;28;20056;-77
2021/08/02 01:58:37;;;;;;;;;;;15.30;95.00;;;;;;5058998;28;20036;-77
2021/08/02 02:01:03;;;;;;;2.13;1.02;;;15.30;95.00;;;;;;5060651;28;19912;-77
2021/08/02 02:03:30;;;;;;;3.88;2.40;;;15.20;95.00;;;;;;5060097;28;20032;-77
2021/08/02 02:06:06;;;;;;;7.75;3.28;;;15.20;95.00;;;;;;5058445;28;20043;-77
2021/08/02 02:08:40;;;;;;;8.25;5.05;;;15.20;95.30;;;;;;5061804;28;20025;-77
2021/08/02 02:11:07;;;;;;;7.13;4.88;;;15.20;95.10;;;;;;5060875;28;20588;-77
2021/08/02 02:13:40;;;;;;;8.60;4.15;;;15.20;95.10;;;;;;5060216;28;20025;-77
2021/08/02 02:16:07;;;;;;;7.28;3.80;;;15.20;95.10;;;;;;5060114;28;20043;-77
2021/08/02 02:18:36;;;;;;;2.22;1.58;;;15.20;95.20;;;;;;5062112;28;20085;-77
2021/08/02 02:21:03;;;;;;;4.32;2.63;;;15.20;95.20;;;;;;5060294;28;20025;-77
2021/08/02 02:23:30;;;;;;;4.93;2.35;;;15.20;95.10;;;;;;5061121;28;20016;-77
2021/08/02 02:25:56;;;;;;;9.60;3.85;;;15.20;95.10;;;;;;5066029;28;20052;-77
2021/08/02 02:28:23;;;;;;;4.25;2.58;;;15.20;95.00;;;;;;5067726;28;20025;-77
2021/08/02 02:30:51;;;;;;;4.68;3.25;;;15.20;95.00;;;;;;5059644;28;20025;-77
2021/08/02 02:33:18;;;;;;;4.50;2.65;;;15.20;95.00;;;;;;5061321;28;20029;-77
2021/08/02 02:35:46;;;;;;;8.13;3.63;;;15.30;94.90;;;;;;5059929;28;20403;-77
2021/08/02 02:38:14;;;;;;;2.78;1.98;;;15.20;95.00;;;;;;5059962;28;20059;-77
2021/08/02 02:40:43;;;;;;;4.55;2.72;;;15.20;95.00;;;;;;5060552;28;20025;-77
2021/08/02 02:43:11;;;;;;;4.85;2.13;;;15.10;95.00;;;;;;5060715;28;20035;-77
2021/08/02 02:45:37;;;;;;;7.38;3.53;;;15.10;95.00;;;;;;5057744;28;20040;-77
2021/08/02 02:48:05;;;;;;;2.55;1.77;;;15.10;95.00;;;;;;5060343;28;20074;-76
2021/08/02 02:50:32;;;;;;;6.32;2.63;;;15.10;95.00;;;;;;5060298;28;20023;-77
2021/08/02 02:53:00;;;;;;;3.17;2.25;;;15.10;95.00;;;;;;5059745;28;20583;-76
2021/08/02 02:55:26;;;;;;;2.55;1.40;;;15.10;95.00;;;;;;5078344;28;20479;-77
2021/08/02 02:57:52;;;;;;;5.88;2.45;;;15.00;95.00;;;;;;5061842;28;20083;-77
2021/08/02 03:00:19;;;;;;;5.78;2.83;;;15.00;95.10;;;;;;5058122;28;20384;-76
2021/08/02 03:02:48;;;;;;;8.75;2.35;;;15.00;95.10;;;;;;5059790;28;20090;-76
2021/08/02 03:05:16;;;;;;;4.65;2.00;;;15.00;95.10;;;;;;5065447;28;20033;-77
2021/08/02 03:07:42;;;;;;;3.13;1.63;;;14.90;95.20;;;;;;5078520;28;20399;-77
2021/08/02 03:10:10;;;;;;;5.45;1.75;;;14.90;95.30;;;;;;5058913;28;20024;-77
2021/08/02 03:12:36;;;;;;;2.80;1.58;;;14.80;95.40;;;;;;5059515;28;20106;-77
2021/08/02 03:15:03;;;;;;;4.47;1.30;;;14.80;95.40;;;;;;5061623;28;20487;-76
2021/08/02 03:17:29;;;;;;;4.90;2.03;;;14.80;95.50;;;;;;5058609;28;20073;-77
2021/08/02 03:19:54;;;;;;;2.17;1.17;;;14.70;95.50;;;;;;5058982;28;20032;-77
2021/08/02 03:22:26;;;;;;;;;;;14.70;95.50;;;;;;5061987;28;20419;-77
2021/08/02 03:25:15;;;;;;;2.13;1.08;;;14.70;95.60;;;;;;5062399;28;20335;-77
2021/08/02 03:28:05;;;;;;;2.80;1.65;;;14.60;95.60;;;;;;5052508;28;20056;-76
2021/08/02 03:30:34;;;;;;;4.68;1.92;;;14.60;95.60;;;;;;5059994;28;20113;-76
2021/08/02 03:33:01;;;;;;;4.97;1.77;;;14.60;95.60;;;;;;5066611;28;20063;-77
2021/08/02 03:35:28;;;;;;;5.07;1.92;;;14.60;95.70;;;;;;5061952;28;20025;-77
2021/08/02 03:37:54;;;;;;;4.28;2.25;;;14.50;95.70;;;;;;5062417;28;20090;-77
2021/08/02 03:40:19;;;;;;;5.13;1.40;;;14.50;95.70;;;;;;5060276;28;20033;-76
2021/08/02 03:42:47;;;;;;;2.50;1.88;;;14.50;95.70;;;;;;5077828;28;20033;-77
2021/08/02 03:45:15;;;;;;;2.75;2.13;;;14.50;95.70;;;;;;5059694;28;20028;-77
2021/08/02 03:47:42;;;;;;;5.80;1.63;;;14.40;95.80;;;;;;5061817;28;20021;-76
2021/08/02 03:50:08;;;;;;;1.95;1.67;;;14.40;95.80;;;;;;5065247;28;20041;-77
2021/08/02 03:52:33;;;;;;;4.90;2.28;;;14.40;95.70;;;;;;5068382;28;20106;-79
2021/08/02 03:55:00;;;;;;;3.60;1.58;;;14.30;95.70;;;;;;5072962;28;20078;-79
2021/08/02 03:57:29;;;;;;;4.22;2.10;;;14.40;95.70;;;;;;5072192;28;20026;-79
2021/08/02 03:59:55;;;;;;;3.05;1.77;;;14.40;95.70;;;;;;5067993;28;20032;-79
2021/08/02 04:02:20;;;;;;;2.63;1.27;;;14.40;95.70;;;;;;5065037;28;20032;-79
2021/08/02 04:04:45;;;;;;;;;;;14.40;95.80;;;;;;5064553;28;20029;-79
2021/08/02 04:07:11;;;;;;;3.75;1.35;;;14.40;95.80;;;;;;5071185;28;19916;-79
2021/08/02 04:09:37;;;;;;;2.72;1.95;;;14.40;95.80;;;;;;5070648;28;20107;-79
2021/08/02 04:12:02;;;;;;;3.28;1.92;;;14.50;95.70;;;;;;5063875;28;20104;-79
2021/08/02 04:14:28;;;;;;;3.58;1.20;;;14.60;95.70;;;;;;5067583;28;20033;-78
2021/08/02 04:16:53;;;;;;;;;;;14.70;95.60;;;;;;5066673;28;20552;-79
2021/08/02 04:19:19;;;;;;;3.60;1.30;;;14.70;95.40;;;;;;5065063;28;19919;-79
2021/08/02 04:21:45;;;;;;;3.33;1.50;;;14.80;95.40;;;;;;5062797;28;20108;-79
2021/08/02 04:24:10;;;;;;;5.60;2.42;;;14.90;95.30;;;;;;5075625;28;20127;-79
2021/08/02 04:26:36;;;;;;;6.45;1.85;;;15.00;95.20;;;;;;5061883;28;20021;-80
2021/08/02 04:29:01;;;;;;;5.47;2.50;;;15.10;94.90;;;;;;5064359;28;20029;-72
2021/08/02 04:31:30;;;;;;;4.40;1.10;;;15.30;94.80;;;;;;5061708;28;20029;-80
2021/08/02 04:33:56;;;;;;;6.30;2.00;;;15.50;94.60;;;;;;5059745;28;20051;-79
2021/08/02 04:36:23;;;;;;;5.13;1.83;;;15.80;94.30;;;;;;5061550;28;20025;-80
2021/08/02 04:38:49;;;;;;;7.93;1.50;;;15.90;93.90;;;;;;5061166;28;20480;-82
2021/08/02 04:41:15;;;;;;;2.95;1.60;;;16.00;93.70;;;;;;5061110;28;20056;-81
2021/08/02 04:43:41;;;;;;;3.67;1.42;;;16.10;93.20;;;;;;5061129;28;20052;-80
2021/08/02 04:46:07;;;;;;;4.35;2.35;;;16.20;93.20;;;;;;5059111;28;20048;-80
2021/08/02 04:48:32;;;;;;;6.55;2.08;;;16.30;93.20;;;;;;5059444;28;20029;-79
2021/08/02 04:50:58;;;;;;;4.68;1.60;;;16.50;93.10;;;;;;5061787;28;20472;-79
2021/08/02 04:53:23;;;;;;;4.35;1.77;;;16.70;92.70;;;;;;5061188;28;20028;-80
2021/08/02 04:55:49;;;;;;;11.15;2.60;;;16.90;92.40;;;;;;5060968;28;20063;-81
2021/08/02 04:58:14;;;;;;;5.57;2.50;;;17.00;92.00;;;;;;5058963;28;20033;-79
2021/08/02 05:00:40;;;;;;;11.10;4.03;;;17.20;91.60;;;;;;5060380;28;20039;-79
2021/08/02 05:03:05;;;;;;;5.28;4.00;;;17.30;91.30;;;;;;5077396;28;20079;-81
2021/08/02 05:05:31;;;;;;;6.45;3.15;;;17.50;91.30;;;;;;5065559;28;20032;-80
2021/08/02 05:07:56;;;;;;;12.40;4.68;;;17.60;90.50;;;;;;5061103;28;20078;-80
2021/08/02 05:10:22;;;;;;;4.43;3.13;;;17.70;90.40;;;;;;5061322;28;20031;-81
2021/08/02 05:12:51;;;;;;;11.40;6.32;;;17.80;89.90;;;;;;5058886;28;20041;-80
2021/08/02 05:15:17;;;;;;;2.90;2.28;;;18.00;89.30;;;;;;5074204;28;20028;-80
2021/08/02 05:17:43;;;;;;;5.25;2.03;;;18.10;88.90;;;;;;5074863;28;20021;-80
2021/08/02 05:20:08;;;;;;;6.80;3.55;;;18.20;88.30;;;;;;5076090;28;20966;-80
2021/08/02 05:22:34;;;;;;;6.10;2.88;;;18.30;87.80;;;;;;5058291;28;20025;-80
2021/08/02 05:25:00;;;;;;;5.70;2.35;;;18.40;87.60;;;;;;5059807;28;20036;-80
2021/08/02 05:27:26;;;;;;;2.95;1.70;;;18.60;86.80;;;;;;5058649;28;20052;-80
2021/08/02 05:29:52;;;;;;;3.95;1.73;;;18.80;85.30;;;;;;5058364;28;20070;-81
2021/08/02 05:32:17;;;;;;;4.30;1.30;;;18.80;85.20;;;;;;5059710;28;20480;-81
2021/08/02 05:34:43;;;;;;;3.85;2.33;;;19.00;84.20;;;;;;5058375;28;20035;-80
2021/08/02 05:37:09;;;;;;;2.15;1.52;;;19.10;84.80;;;;;;5059646;28;20502;-81
2021/08/02 05:39:35;;;;;;;3.38;1.55;;;19.20;83.20;;;;;;5059220;28;20087;-81
2021/08/02 05:42:01;;;;;;;6.13;1.50;;;19.20;82.80;;;;;;5061182;28;20032;-81
2021/08/02 05:44:26;;;;;;;2.15;0.90;;;19.10;82.30;;;;;;5059289;28;20182;-81
2021/08/02 05:46:52;;;;;;;2.15;0.95;;;18.80;81.80;;;;;;5060285;28;20213;-81
2021/08/02 05:49:18;;;;;;;2.95;1.85;;;18.60;82.40;;;;;;5059980;28;20013;-80
2021/08/02 05:51:43;;;;;;;1.77;1.30;;;18.50;83.10;;;;;;5060522;28;20043;-80
2021/08/02 05:54:09;;;;;;;4.25;2.20;;;18.40;82.70;;;;;;5059869;28;20387;-81
2021/08/02 05:56:34;;;;;;;5.63;3.40;;;18.30;83.20;;;;;;5058699;28;20115;-80
2021/08/02 05:59:00;;;;;;;2.70;1.38;;;18.20;83.50;;;;;;5060116;28;20024;-81
2021/08/02 06:01:25;;;;;;;1.83;1.55;;;18.20;83.50;;;;;;5060314;28;20407;-80
2021/08/02 06:03:51;;;;;;;5.72;3.00;;;18.20;83.50;;;;;;5060186;28;20458;-80
2021/08/02 06:06:17;;;;;;;7.85;5.32;;;18.20;83.50;;;;;;5059921;28;20036;-81
2021/08/02 06:08:43;;;;;;;8.73;1.80;;;18.20;83.60;;;;;;5060707;28;20021;-80
2021/08/02 06:11:08;;;;;;;9.32;2.88;;;18.20;83.40;;;;;;5073603;28;20472;-80
2021/08/02 06:13:34;;;;;;;6.03;3.70;;;18.10;83.10;;;;;;5060408;28;20074;-80
2021/08/02 06:16:00;;;;;;;4.50;2.45;;;18.00;83.40;;;;;;5059500;28;20032;-80
2021/08/02 06:18:26;;;;;;;4.47;2.15;;;18.00;83.40;;;;;;5066196;28;20462;-80
2021/08/02 06:20:51;;;;;;;20.92;12.18;;;17.90;83.40;;;;;;5059922;28;20028;-80
2021/08/02 06:23:17;;;;;;;9.98;2.75;;;17.90;83.60;;;;;;5059350;28;20039;-80
2021/08/02 06:25:42;;;;;;;11.00;5.72;;;17.80;83.40;;;;;;5059717;28;20111;-80
2021/08/02 06:28:08;;;;;;;8.38;3.75;;;17.80;83.90;;;;;;5057848;28;20044;-80
2021/08/02 06:30:33;;;;;;;9.25;3.28;;;17.80;83.70;;;;;;5059878;28;20025;-80
2021/08/02 06:32:59;;;;;;;11.30;2.75;;;17.80;83.80;;;;;;5059051;28;20087;-80
2021/08/02 06:35:26;;;;;;;3.10;2.20;;;17.80;83.70;;;;;;5059727;28;20045;-80
2021/08/02 06:37:51;;;;;;;3.63;1.05;;;17.80;83.80;;;;;;5059308;28;20025;-80
2021/08/02 06:40:17;;;;;;;11.27;3.00;;;17.90;83.70;;;;;;5058901;28;20031;-80
2021/08/02 06:42:42;;;;;;;6.50;1.60;;;18.00;83.80;;;;;;5059756;28;20366;-80
2021/08/02 06:45:09;;;;;;;3.70;1.35;;;18.20;83.40;;;;;;5057092;28;20029;-80
2021/08/02 06:47:34;;;;;;;12.52;6.18;;;18.20;82.60;;;;;;5054923;28;20036;-79
2021/08/02 06:50:00;;;;;;;7.68;4.30;;;18.20;83.10;;;;;;5059081;28;20029;-80
2021/08/02 06:52:25;;;;;;;19.02;11.20;;;18.20;82.40;;;;;;5059312;28;20032;-81
2021/08/02 06:54:51;;;;;;;16.85;7.95;;;18.20;82.60;;;;;;5060454;28;20162;-80
2021/08/02 06:57:16;;;;;;;3.38;1.75;;;18.30;82.90;;;;;;5059856;28;20112;-80
2021/08/02 06:59:42;;;;;;;6.30;2.25;;;18.30;81.60;;;;;;5059933;28;20497;-80
2021/08/02 07:02:08;;;;;;;5.40;1.83;;;18.30;81.80;;;;;;5072780;28;20094;-79
2021/08/02 07:04:33;;;;;;;5.78;1.20;;;18.20;81.80;;;;;;5058230;28;20040;-80
2021/08/02 07:06:59;;;;;;;6.60;2.70;;;18.20;81.90;;;;;;5059015;28;20020;-81
2021/08/02 07:09:24;;;;;;;3.47;1.10;;;18.20;81.50;;;;;;5058932;28;20028;-81
2021/08/02 07:11:50;;;;;;;4.95;1.27;;;18.30;81.50;;;;;;5060230;28;20021;-79
2021/08/02 07:14:16;;;;;;;15.35;7.55;;;18.40;81.70;;;;;;5058987;28;20028;-81
2021/08/02 07:16:41;;;;;;;8.50;2.78;;;18.60;81.40;;;;;;5059488;28;20021;-81
2021/08/02 07:19:07;;;;;;;7.25;3.75;;;18.60;81.30;;;;;;5059260;28;20032;-81
2021/08/02 07:21:32;;;;;;;7.70;1.70;;;18.60;80.90;;;;;;5061955;28;20025;-81
2021/08/02 07:23:58;;;;;;;4.40;2.03;;;18.60;80.70;;;;;;5062471;28;20070;-81
2021/08/02 07:26:24;;;;;;;11.77;6.35;;;18.60;80.60;;;;;;5063708;28;20356;-81
2021/08/02 07:28:50;;;;;;;5.20;1.27;;;18.60;81.00;;;;;;5063705;28;20033;-81
2021/08/02 07:31:15;;;;;;;3.67;1.33;;;18.80;80.40;;;;;;5064383;28;20012;-81
2021/08/02 07:33:41;;;;;;;3.80;1.58;;;18.80;79.50;;;;;;5063971;28;20024;-81
2021/08/02 07:36:07;;;;;;;3.67;0.93;;;18.80;79.80;;;;;;5062590;28;20507;-80
2021/08/02 07:38:34;;;;;;;3.20;1.13;;;18.90;79.80;;;;;;5063065;28;20036;-81
2021/08/02 07:41:01;;;;;;;2.63;0.50;;;19.00;79.00;;;;;;5063413;28;20140;-80
2021/08/02 07:43:27;;;;;;;2.75;0.98;;;18.90;78.40;;;;;;5063643;28;20478;-81
2021/08/02 07:45:52;;;;;;;1.60;1.30;;;18.90;78.70;;;;;;5070025;28;20064;-81
2021/08/02 07:48:18;;;;;;;2.38;1.17;;;19.00;78.70;;;;;;5061629;28;20337;-81
2021/08/02 07:50:43;;;;;;;3.45;1.33;;;19.00;78.00;;;;;;5061565;28;20428;-80
2021/08/02 07:53:09;;;;;;;4.22;0.90;;;19.20;78.40;;;;;;5063479;28;20020;-81
2021/08/02 07:55:34;;;;;;;3.55;1.20;;;19.20;76.70;;;;;;5062850;28;20051;-80
2021/08/02 07:58:00;;;;;;;3.83;0.82;;;19.20;77.20;;;;;;5062724;28;20396;-81
2021/08/02 08:00:25;;;;;;;3.00;0.80;;;19.30;77.60;;;;;;5062046;28;20028;-81
2021/08/02 08:02:51;;;;;;;4.18;1.67;;;19.40;77.60;;;;;;5063331;28;20031;-80
2021/08/02 08:05:16;;;;;;;3.60;0.85;;;19.50;77.30;;;;;;5067003;28;20031;-80
2021/08/02 08:07:42;;;;;;;4.55;0.88;;;19.50;74.00;;;;;;5059294;28;20036;-78
2021/08/02 08:10:09;;;;;;;6.00;0.95;;;19.30;75.90;;;;;;5061249;28;20100;-79
2021/08/02 08:12:34;;;;;;;4.28;0.60;;;19.30;75.80;;;;;;5062732;28;20020;-78
2021/08/02 08:14:59;;;;;;;2.53;0.75;;;19.30;73.90;;;;;;5061277;28;20043;-78
2021/08/02 08:17:25;;;;;;;4.68;2.15;;;19.10;74.60;;;;;;5061239;28;20539;-78
2021/08/02 08:19:50;;;;;;;5.32;3.25;;;19.00;75.30;;;;;;5059194;28;20025;-78
2021/08/02 08:22:16;;;;;;;5.82;2.80;;;19.00;75.00;;;;;;5076209;28;20028;-78
2021/08/02 08:24:42;;;;;;;4.28;1.58;;;19.00;74.60;;;;;;5060251;28;20116;-78
2021/08/02 08:27:07;;;;;;;3.67;1.88;;;19.20;75.20;;;;;;5075990;28;20021;-77
2021/08/02 08:29:33;;;;;;;6.80;3.35;;;19.40;74.90;;;;;;5060625;28;20088;-78
2021/08/02 08:31:58;;;;;;;4.57;2.03;;;19.50;75.30;;;;;;5062251;28;20025;-78
2021/08/02 08:34:24;;;;;;;1.70;0.70;;;19.80;75.10;;;;;;5063448;28;20075;-78
2021/08/02 08:36:49;;;;;;;1.17;0.60;;;20.10;74.70;;;;;;5060550;28;20085;-78
2021/08/02 08:39:15;;;;;;;4.38;1.45;;;20.10;73.70;;;;;;5077832;28;20048;-78
2021/08/02 08:41:41;;;;;;;3.65;0.95;;;20.10;73.10;;;;;;5078888;28;20115;-78
2021/08/02 08:44:08;;;;;;;1.80;0.60;;;20.00;73.10;;;;;;5061809;28;20055;-78
2021/08/02 08:46:33;;;;;;;5.38;1.10;;;19.90;73.40;;;;;;5061607;28;20029;-78
2021/08/02 08:48:59;;;;;;;1.92;0.70;;;19.80;73.40;;;;;;5061019;28;20562;-79
2021/08/02 08:51:27;;;;;;;4.18;0.77;;;19.70;73.30;;;;;;5077101;28;20381;-78
2021/08/02 08:53:53;;;;;;;3.38;0.95;;;19.60;73.50;;;;;;5077473;28;20021;-78
2021/08/02 08:56:18;;;;;;;5.55;1.13;;;19.50;73.10;;;;;;5061549;28;20393;-78
2021/08/02 08:58:45;;;;;;;2.63;0.60;;;19.50;73.40;;;;;;5061651;28;20411;-78
2021/08/02 09:01:12;;;;;;;3.08;0.60;;;19.50;73.50;;;;;;5077428;28;20107;-78
2021/08/02 09:03:49;;;;;;;3.17;0.80;;;19.50;73.10;;;;;;5060804;28;20496;-78
2021/08/02 09:06:15;;;;;;;1.98;0.70;;;19.60;73.70;;;;;;5076820;28;20041;-78
2021/08/02 09:08:41;;;;;;;3.08;0.73;;;19.70;73.10;;;;;;5061799;28;20389;-78
2021/08/02 09:11:07;;;;;;;2.28;1.10;;;19.70;71.90;;;;;;5059924;28;20483;-78
2021/08/02 09:13:36;;;;;;;2.95;0.90;;;19.70;73.10;;;;;;5063373;28;20438;-77
2021/08/02 09:16:30;;;;;;;1.65;0.50;;;19.70;73.30;;;;;;5060100;28;20503;-78
2021/08/02 09:19:03;;;;;;;1.98;0.82;;;19.90;72.70;;;;;;5059108;28;20045;-78
2021/08/02 09:21:46;;;;;;;4.22;0.50;;;20.00;72.60;;;;;;5062509;28;20021;-78
2021/08/02 09:24:12;;;;;;;1.08;0.40;;;20.10;72.00;;;;;;5061632;28;20078;-78
2021/08/02 09:26:40;;;;;;;3.65;0.82;;;20.10;71.70;;;;;;5062434;28;20075;-78
2021/08/02 09:29:06;;;;;;;6.57;1.20;;;20.10;71.20;;;;;;5059454;28;20032;-78
2021/08/02 09:31:36;;;;;;;1.88;0.35;;;20.40;71.30;;;;;;5061902;28;20029;-78
2021/08/02 09:34:07;;;;;;;2.35;0.63;;;20.60;70.30;;;;;;5061422;28;20020;-77
2021/08/02 09:36:36;;;;;;;2.08;0.50;;;20.70;68.80;;;;;;5057816;28;20098;-78
2021/08/02 09:39:07;;;;;;;3.40;0.70;;;20.90;69.60;;;;;;5057576;28;20136;-77
2021/08/02 09:41:33;;;;;;;2.13;0.55;;;21.10;69.60;;;;;;5061121;28;20412;-77
2021/08/02 09:43:58;;;;;;;2.42;0.60;;;21.10;69.30;;;;;;5060805;28;20036;-78
2021/08/02 09:46:24;;;;;;;4.07;0.70;;;21.10;68.20;;;;;;5059677;28;20107;-76
2021/08/02 09:48:50;;;;;;;2.00;0.60;;;21.20;68.50;;;;;;5059445;28;20032;-76
2021/08/02 09:51:20;;;;;;;1.90;0.60;;;21.20;67.60;;;;;;5058803;28;20032;-72
2021/08/02 09:53:53;;;;;;;1.33;0.75;;;21.00;67.40;;;;;;5057092;28;20506;-72
2021/08/02 09:56:21;;;;;;;5.25;0.70;;;20.90;68.30;;;;;;5061663;28;20109;-75
2021/08/02 09:58:47;;;;;;;1.90;0.70;;;20.80;67.90;;;;;;5058379;28;20028;-73
2021/08/02 10:01:14;;;;;;;1.35;0.45;;;20.60;67.60;;;;;;5074454;28;20442;-72
2021/08/02 10:03:40;;;;;;;1.38;0.45;;;20.50;67.90;;;;;;5057435;28;20056;-72
2021/08/02 10:06:06;;;;;;;0.75;0.50;;;20.50;67.80;;;;;;5059126;28;20086;-72
2021/08/02 10:08:36;;;;;;;4.93;0.75;;;20.50;67.60;;;;;;5056028;28;20179;-73
2021/08/02 10:11:02;;;;;;;3.53;0.70;;;20.60;68.10;;;;;;5076180;28;20449;-73
2021/08/02 10:13:32;;;;;;;1.63;0.70;;;20.60;67.50;;;;;;5058594;28;20385;-73
2021/08/02 10:15:59;;;;;;;3.92;0.75;;;20.80;67.60;;;;;;5062147;28;20040;-72
2021/08/02 10:18:27;;;;;;;1.25;0.60;;;21.00;67.70;;;;;;5059826;28;20033;-73
2021/08/02 10:21:10;;;;;;;1.95;0.60;;;21.10;67.10;;;;;;5057730;28;20115;-72
2021/08/02 10:23:38;;;;;;;6.15;0.70;;;21.20;64.60;;;;;;5058431;28;20499;-72
2021/08/02 10:26:04;;;;;;;5.07;0.82;;;21.30;65.10;;;;;;5073455;28;20033;-72
2021/08/02 10:28:29;;;;;;;2.67;0.93;;;21.20;63.90;;;;;;5059208;28;20021;-72
2021/08/02 10:31:03;;;;;;;2.90;0.82;;;21.00;63.80;;;;;;5059718;28;20086;-72
2021/08/02 10:33:37;;;;;;;1.75;0.57;;;20.70;64.70;;;;;;5059542;28;20028;-72
2021/08/02 10:36:17;;;;;;;1.98;0.40;;;20.70;65.00;;;;;;5057792;28;20036;-73
2021/08/02 10:38:45;;;;;;;1.42;0.60;;;20.90;65.30;;;;;;5074899;28;20036;-72
2021/08/02 10:41:21;;;;;;;1.67;0.60;;;20.90;63.70;;;;;;5058378;28;20236;-72
2021/08/02 10:43:47;;;;;;;;;;;20.80;63.30;;;;;;5060092;28;20400;-72
2021/08/02 10:46:18;;;;;;;2.00;0.40;;;20.90;63.00;;;;;;5059557;28;19924;-72
2021/08/02 10:48:45;;;;;;;1.33;0.50;;;20.80;63.60;;;;;;5057633;28;20373;-72
2021/08/02 10:51:13;;;;;;;1.90;0.80;;;20.80;63.80;;;;;;5059691;28;20021;-72
2021/08/02 10:53:39;;;;;;;2.72;0.57;;;20.90;64.00;;;;;;5057964;28;20021;-72
2021/08/02 10:56:06;;;;;;;1.05;0.45;;;21.10;64.50;;;;;;5057229;28;20037;-73
2021/08/02 10:58:36;;;;;;;3.83;0.95;;;21.30;64.30;;;;;;5064706;28;20373;-72
2021/08/02 11:01:04;;;;;;;4.50;1.05;;;21.60;64.50;;;;;;5056483;28;20115;-72
2021/08/02 11:03:37;;;;;;;4.40;1.00;;;21.90;64.40;;;;;;5059006;28;20032;-73
2021/08/02 11:06:06;;;;;;;3.55;0.80;;;22.10;64.20;;;;;;5058768;28;20116;-73
2021/08/02 11:08:40;;;;;;;5.57;0.50;;;22.20;63.90;;;;;;5059156;28;20045;-75
2021/08/02 11:11:05;;;;;;;1.92;0.70;;;22.10;62.70;;;;;;5058606;28;20028;-73
2021/08/02 11:13:31;;;;;;;1.35;0.68;;;21.90;62.30;;;;;;5059232;28;20013;-75
2021/08/02 11:15:57;;;;;;;3.20;0.90;;;21.80;62.50;;;;;;5058147;28;20142;-75
2021/08/02 11:18:24;;;;;;;1.48;0.50;;;21.80;62.80;;;;;;5060001;28;20033;-74
2021/08/02 11:20:50;;;;;;;1.35;0.63;;;21.90;62.50;;;;;;5058039;28;20025;-73
2021/08/02 11:23:16;;;;;;;2.17;0.30;;;22.10;61.90;;;;;;5057305;28;20534;-73
2021/08/02 11:25:41;;;;;;;2.15;0.43;;;22.30;62.10;;;;;;5057261;28;20036;-74
2021/08/02 11:28:07;;;;;;;1.38;0.50;;;22.60;61.00;;;;;;5057182;28;20403;-73
2021/08/02 11:30:32;;;;;;;1.80;0.43;;;22.80;60.50;;;;;;5057015;28;20025;-73
2021/08/02 11:32:58;;;;;;;1.88;0.50;;;23.00;59.20;;;;;;5059031;28;20036;-73
2021/08/02 11:35:37;;;;;;;1.08;0.50;;;23.10;59.50;;;;;;5059169;28;20035;-73
2021/08/02 11:38:04;;;;;;;2.22;0.57;;;23.00;58.10;;;;;;5057204;28;20040;-73
2021/08/02 11:40:35;;;;;;;2.58;0.63;;;22.70;58.00;;;;;;5058072;28;20052;-73
2021/08/02 11:43:02;;;;;;;1.33;0.32;;;22.70;59.70;;;;;;5057761;28;20028;-73
2021/08/02 11:45:28;;;;;;;3.15;0.45;;;23.10;57.70;;;;;;5057458;28;20036;-73
2021/08/02 11:47:55;;;;;;;2.05;0.57;;;23.20;58.00;;;;;;5058017;28;20502;-73
2021/08/02 11:50:21;;;;;;;3.60;0.40;;;23.10;57.60;;;;;;5056259;28;20487;-73
2021/08/02 11:53:00;;;;;;;1.35;0.40;;;23.00;57.80;;;;;;5058773;28;20096;-73
2021/08/02 11:55:26;;;;;;;1.58;0.40;;;22.90;58.40;;;;;;5058118;28;20028;-73
2021/08/02 11:57:59;;;;;;;1.33;0.60;;;22.70;58.00;;;;;;5061235;28;20050;-73
2021/08/02 12:00:25;;;;;;;2.85;0.50;;;22.50;57.60;;;;;;5074180;28;20033;-73
2021/08/02 12:02:51;;;;;;;1.10;0.40;;;22.20;57.70;;;;;;5058499;28;20404;-73
2021/08/02 12:05:21;;;;;;;0.90;0.40;;;21.90;57.80;;;;;;5056596;28;20502;-73
2021/08/02 12:07:47;;;;;;;3.97;1.23;;;21.70;58.30;;;;;;5059156;28;20024;-73
2021/08/02 12:10:15;;;;;;;2.58;0.50;;;21.50;59.30;;;;;;5061533;28;20124;-73
2021/08/02 12:12:42;;;;;;;1.70;0.40;;;21.30;60.00;;;;;;5062658;28;20055;-73
2021/08/02 12:15:09;;;;;;;1.95;0.50;;;21.10;60.40;;;;;;5061812;28;20089;-72
2021/08/02 12:17:46;;;;;;;3.28;0.40;;;21.00;60.90;;;;;;5060530;28;20036;-72
2021/08/02 12:20:12;;;;;;;1.63;0.70;;;20.90;61.40;;;;;;5060487;28;20078;-72
2021/08/02 12:22:38;;;;;;;11.63;0.68;;;20.80;61.80;;;;;;5059367;28;20025;-73
2021/08/02 12:25:06;;;;;;;1.60;0.70;;;20.70;62.60;;;;;;5061319;28;20033;-73
2021/08/02 12:27:32;;;;;;;3.22;0.40;;;20.60;62.70;;;;;;5061348;28;20115;-72
2021/08/02 12:30:02;;;;;;;6.15;0.52;;;20.60;63.10;;;;;;5077669;28;20476;-72
2021/08/02 12:32:38;;;;;;;1.58;0.43;;;20.60;63.30;;;;;;5057057;28;20139;-72
2021/08/02 12:35:06;;;;;;;3.25;0.70;;;20.60;64.40;;;;;;5061438;28;20033;-72
2021/08/02 12:37:31;;;;;;;2.83;0.40;;;20.70;64.20;;;;;;5061779;28;20109;-73
2021/08/02 12:39:58;;;;;;;2.85;0.40;;;20.90;62.80;;;;;;5061784;28;20099;-70
2021/08/02 12:42:25;;;;;;;2.72;0.40;;;21.10;62.80;;;;;;5061341;28;20083;-70
2021/08/02 12:44:52;;;;;;;3.55;0.68;;;21.30;62.10;;;;;;5059297;28;20387;-71
2021/08/02 12:47:18;;;;;;;2.92;0.98;;;21.50;61.30;;;;;;5077401;28;20021;-70
2021/08/02 12:49:43;;;;;;;0.93;0.40;;;21.70;61.40;;;;;;5057975;28;20029;-70
2021/08/02 12:52:09;;;;;;;3.20;0.70;;;22.00;60.90;;;;;;5060647;28;20028;-70